Snoqualmie River: Carnation station

back to: Snoqualmie river
Carnation station Summary - (NOAA Hydrograph: CRNW1)
flood stage: 54.0 ft
Latest reading:
Sat01/19 05:15 am 46.59 ft 2779 cfs (+92/hr)
Past 24hr max:
Sat01/19 05:15 am 46.59 ft 2779 cfs
Forecasted crests: (published Fri 01/18/19 09:02 pm)
Sat01/19 04:00 pm 47.38 ft 4887 cfs
Wed01/23 04:00 pm 49.92 ft 9647 cfs

Carnation station Details

Latest Readings

Last 100 Readings:
Sat01/19 05:15 am 46.59 ft 2779 cfs
Sat01/19 05:00 am 46.58 ft 2756 cfs
Sat01/19 04:45 am 46.58 ft 2756 cfs
Sat01/19 04:30 am 46.58 ft 2756 cfs
Sat01/19 04:15 am 46.58 ft 2756 cfs
Sat01/19 04:00 am 46.57 ft 2733 cfs
Sat01/19 03:45 am 46.57 ft 2733 cfs
Sat01/19 03:30 am 46.57 ft 2733 cfs
Sat01/19 03:15 am 46.56 ft 2710 cfs
Sat01/19 03:00 am 46.56 ft 2710 cfs
Sat01/19 02:45 am 46.57 ft 2733 cfs
Sat01/19 02:30 am 46.57 ft 2733 cfs
Sat01/19 02:15 am 46.56 ft 2710 cfs
Sat01/19 02:00 am 46.56 ft 2710 cfs
Sat01/19 01:45 am 46.56 ft 2710 cfs
Sat01/19 01:30 am 46.57 ft 2733 cfs
Sat01/19 01:15 am 46.56 ft 2710 cfs
Sat01/19 01:00 am 46.55 ft 2688 cfs
Sat01/19 12:45 am 46.56 ft 2710 cfs
Sat01/19 12:30 am 46.56 ft 2710 cfs
Sat01/19 12:15 am 46.56 ft 2710 cfs
Sat01/19 12:00 am 46.55 ft 2688 cfs
Fri01/18 11:45 pm 46.57 ft 2733 cfs
Fri01/18 11:30 pm 46.57 ft 2733 cfs
Fri01/18 11:15 pm 46.58 ft 2756 cfs
Fri01/18 11:00 pm 46.58 ft 2756 cfs
Fri01/18 10:45 pm 46.58 ft 2756 cfs
Fri01/18 10:30 pm 46.58 ft 2756 cfs
Fri01/18 10:15 pm 46.58 ft 2756 cfs
Fri01/18 10:00 pm 46.57 ft 2733 cfs
Fri01/18 09:45 pm 46.58 ft 2756 cfs
Fri01/18 09:30 pm 46.57 ft 2733 cfs
Fri01/18 09:15 pm 46.59 ft 2779 cfs
Fri01/18 09:00 pm 46.57 ft 2733 cfs
Fri01/18 08:45 pm 46.58 ft 2756 cfs
Fri01/18 08:30 pm 46.57 ft 2733 cfs
Fri01/18 08:15 pm 46.56 ft 2710 cfs
Fri01/18 08:00 pm 46.57 ft 2733 cfs
Fri01/18 07:45 pm 46.57 ft 2733 cfs
Fri01/18 07:30 pm 46.57 ft 2733 cfs
Fri01/18 07:15 pm 46.56 ft 2710 cfs
Fri01/18 07:00 pm 46.57 ft 2733 cfs
Fri01/18 06:45 pm 46.56 ft 2710 cfs
Fri01/18 06:30 pm 46.56 ft 2710 cfs
Fri01/18 06:15 pm 46.55 ft 2688 cfs
Fri01/18 06:00 pm 46.56 ft 2710 cfs
Fri01/18 05:45 pm 46.55 ft 2688 cfs
Fri01/18 05:30 pm 46.55 ft 2688 cfs
Fri01/18 05:15 pm 46.55 ft 2688 cfs
Fri01/18 05:00 pm 46.55 ft 2688 cfs
Fri01/18 04:45 pm 46.54 ft 2665 cfs
Fri01/18 04:30 pm 46.53 ft 2643 cfs
Fri01/18 04:15 pm 46.53 ft 2643 cfs
Fri01/18 04:00 pm 46.53 ft 2643 cfs
Fri01/18 03:45 pm 46.52 ft 2620 cfs
Fri01/18 03:30 pm 46.52 ft 2620 cfs
Fri01/18 03:15 pm 46.51 ft 2598 cfs
Fri01/18 03:00 pm 46.51 ft 2598 cfs
Fri01/18 02:45 pm 46.5 ft 2576 cfs
Fri01/18 02:30 pm 46.5 ft 2576 cfs
Fri01/18 02:15 pm 46.5 ft 2576 cfs
Fri01/18 02:00 pm 46.49 ft 2554 cfs
Fri01/18 01:45 pm 46.49 ft 2554 cfs
Fri01/18 01:30 pm 46.48 ft 2532 cfs
Fri01/18 01:15 pm 46.48 ft 2532 cfs
Fri01/18 01:00 pm 46.47 ft 2510 cfs
Fri01/18 12:45 pm 46.47 ft 2510 cfs
Fri01/18 12:30 pm 46.47 ft 2510 cfs
Fri01/18 12:15 pm 46.46 ft 2488 cfs
Fri01/18 12:00 pm 46.46 ft 2488 cfs
Fri01/18 11:45 am 46.46 ft 2488 cfs
Fri01/18 11:30 am 46.45 ft 2466 cfs
Fri01/18 11:15 am 46.45 ft 2466 cfs
Fri01/18 11:00 am 46.45 ft 2466 cfs
Fri01/18 10:45 am 46.44 ft 2444 cfs
Fri01/18 10:30 am 46.44 ft 2444 cfs
Fri01/18 10:15 am 46.44 ft 2444 cfs
Fri01/18 10:00 am 46.43 ft 2423 cfs
Fri01/18 09:45 am 46.43 ft 2423 cfs
Fri01/18 09:30 am 46.43 ft 2423 cfs
Fri01/18 09:15 am 46.43 ft 2423 cfs
Fri01/18 09:00 am 46.42 ft 2401 cfs
Fri01/18 08:45 am 46.42 ft 2401 cfs
Fri01/18 08:30 am 46.41 ft 2380 cfs
Fri01/18 08:15 am 46.41 ft 2380 cfs
Fri01/18 08:00 am 46.4 ft 2359 cfs
Fri01/18 07:45 am 46.39 ft 2338 cfs
Fri01/18 07:30 am 46.39 ft 2338 cfs
Fri01/18 07:15 am 46.38 ft 2316 cfs
Fri01/18 07:00 am 46.37 ft 2295 cfs
Fri01/18 06:45 am 46.38 ft 2316 cfs
Fri01/18 06:30 am 46.37 ft 2295 cfs
Fri01/18 06:15 am 46.38 ft 2316 cfs
Fri01/18 06:00 am 46.38 ft 2316 cfs
Fri01/18 05:45 am 46.37 ft 2295 cfs
Fri01/18 05:30 am 46.36 ft 2275 cfs
Fri01/18 05:15 am 46.36 ft 2275 cfs
Fri01/18 05:00 am 46.37 ft 2295 cfs
Fri01/18 04:45 am 46.37 ft 2295 cfs
Fri01/18 04:30 am 46.36 ft 2275 cfs

Latest Forecasts

Currently Forecasted Readings:
Fri01/18 10:00 pm 46.59 ft 2788 cfs
Sat01/19 04:00 am 46.9 ft 3540 cfs
Sat01/19 10:00 am 47.25 ft 4505 cfs
Sat01/19 04:00 pm 47.38 ft 4887 cfs
Sat01/19 10:00 pm 47.38 ft 4878 cfs
Sun01/20 04:00 am 47.27 ft 4546 cfs
Sun01/20 10:00 am 47.11 ft 4103 cfs
Sun01/20 04:00 pm 46.99 ft 3771 cfs
Sun01/20 10:00 pm 46.91 ft 3571 cfs
Mon01/21 04:00 am 46.83 ft 3349 cfs
Mon01/21 10:00 am 46.73 ft 3107 cfs
Mon01/21 04:00 pm 46.64 ft 2904 cfs
Mon01/21 10:00 pm 46.58 ft 2747 cfs
Tue01/22 04:00 am 46.52 ft 2616 cfs
Tue01/22 10:00 am 46.5 ft 2571 cfs
Tue01/22 04:00 pm 46.84 ft 3372 cfs
Tue01/22 10:00 pm 47.53 ft 5343 cfs
Wed01/23 04:00 am 48.67 ft 7571 cfs
Wed01/23 10:00 am 49.84 ft 9484 cfs
Wed01/23 04:00 pm 49.92 ft 9647 cfs
Wed01/23 10:00 pm 49.27 ft 8460 cfs
Thu01/24 04:00 am 48.39 ft 7116 cfs
Thu01/24 10:00 am 47.8 ft 6014 cfs
Thu01/24 04:00 pm 47.48 ft 5180 cfs
Thu01/24 10:00 pm 47.27 ft 4552 cfs
Fri01/25 04:00 am 47.11 ft 4100 cfs
Fri01/25 10:00 am 46.98 ft 3753 cfs
Fri01/25 04:00 pm 46.88 ft 3471 cfs
Fri01/25 10:00 pm 46.79 ft 3247 cfs
Sat01/26 04:00 am 46.71 ft 3069 cfs
Sat01/26 10:00 am 46.65 ft 2921 cfs
Sat01/26 04:00 pm 46.6 ft 2793 cfs
Sat01/26 10:00 pm 46.55 ft 2683 cfs
Sun01/27 04:00 am 46.51 ft 2591 cfs
Sun01/27 10:00 am 46.47 ft 2510 cfs
Sun01/27 04:00 pm 46.44 ft 2436 cfs
Sun01/27 10:00 pm 46.4 ft 2367 cfs
Mon01/28 04:00 am 46.39 ft 2338 cfs

Snoqualmie River flood gauge data supplied by the
National Weather Service Northwest River Forecast Center.

Sign up for Floodzilla alerts.